createdAt,value
2018-03-08T00:02:25.845Z,54.50
2018-03-08T00:04:56.353Z,53.20
2018-03-08T00:07:26.103Z,55.10
2018-03-08T00:09:57.022Z,53.30
2018-03-08T00:12:26.645Z,53.00
2018-03-08T00:14:57.280Z,54.70
2018-03-08T00:17:27.488Z,52.90
2018-03-08T00:19:57.163Z,52.90
2018-03-08T00:22:27.743Z,52.90
2018-03-08T00:24:57.318Z,52.00
2018-03-08T00:27:26.945Z,53.40
2018-03-08T00:29:56.675Z,53.20
2018-03-08T00:32:26.389Z,52.90
2018-03-08T00:34:55.930Z,53.10
2018-03-08T00:37:25.398Z,53.00
2018-03-08T00:39:55.102Z,53.40
2018-03-08T00:42:25.428Z,53.60
2018-03-08T00:44:55.838Z,53.40
2018-03-08T00:47:25.531Z,52.30
2018-03-08T00:49:55.063Z,53.60
2018-03-08T00:52:24.669Z,53.40
2018-03-08T00:54:55.186Z,61.40
2018-03-08T00:57:24.776Z,51.90
2018-03-08T00:59:54.371Z,52.00
2018-03-08T01:02:24.026Z,52.10
2018-03-08T01:04:53.801Z,51.90
2018-03-08T01:07:23.543Z,52.30
2018-03-08T01:09:53.286Z,61.40
2018-03-08T01:16:15.940Z,65.40
2018-03-08T01:18:45.516Z,66.50
2018-03-08T01:21:15.351Z,60.20
2018-03-08T01:23:46.163Z,53.30
2018-03-08T01:26:15.785Z,52.20
2018-03-08T01:28:45.521Z,51.70
2018-03-08T01:31:15.008Z,61.00
2018-03-08T01:33:45.093Z,63.50
2018-03-08T01:36:30.730Z,53.80
2018-03-08T01:39:00.494Z,62.80
2018-03-08T01:41:30.780Z,53.60
2018-03-08T01:44:01.384Z,53.50
2018-03-08T01:46:31.104Z,58.90
2018-03-08T01:49:00.718Z,52.50
2018-03-08T01:51:30.414Z,64.60
2018-03-08T01:54:00.440Z,55.70
2018-03-08T01:56:31.071Z,54.50
2018-03-08T01:59:01.547Z,53.10
2018-03-08T02:01:32.241Z,54.70
2018-03-08T02:04:03.449Z,54.70
2018-03-08T02:06:33.039Z,63.90
2018-03-08T02:09:03.545Z,54.60
2018-03-08T02:11:34.151Z,54.50
2018-03-08T02:14:03.960Z,54.30
2018-03-08T02:16:33.544Z,54.60
2018-03-08T02:19:03.086Z,54.60
2018-03-08T02:21:32.583Z,54.60
2018-03-08T02:24:02.541Z,56.30
2018-03-08T02:26:32.309Z,53.00
2018-03-08T02:29:02.673Z,53.10
2018-03-08T02:31:32.300Z,53.10
2018-03-08T02:34:03.567Z,54.20
2018-03-08T02:36:33.271Z,54.20
2018-03-08T02:39:03.016Z,59.90
2018-03-08T02:41:33.409Z,54.50
2018-03-08T02:44:04.172Z,53.10
2018-03-08T02:46:33.890Z,65.80
2018-03-08T02:49:03.711Z,65.00
2018-03-08T02:51:33.338Z,67.70
2018-03-08T02:54:02.819Z,64.50
2018-03-08T02:56:33.387Z,61.90
2018-03-08T02:59:04.281Z,52.90
2018-03-08T03:01:33.992Z,71.20
2018-03-08T03:04:04.903Z,53.10
2018-03-08T03:06:35.209Z,53.00
2018-03-08T03:09:05.784Z,53.20
2018-03-08T03:11:36.151Z,56.20
2018-03-08T03:14:06.666Z,54.40
2018-03-08T03:16:37.039Z,54.60
2018-03-08T03:19:06.970Z,54.40
2018-03-08T03:21:36.488Z,69.20
2018-03-08T03:24:06.907Z,53.00
2018-03-08T03:26:36.412Z,70.90
2018-03-08T03:29:06.241Z,71.00
2018-03-08T03:31:36.148Z,63.90
2018-03-08T03:34:05.722Z,66.50
2018-03-08T03:36:35.461Z,63.60
2018-03-08T03:39:05.732Z,53.40
2018-03-08T03:41:35.475Z,71.10
2018-03-08T03:44:05.166Z,61.50
2018-03-08T03:46:35.493Z,53.60
2018-03-08T03:49:05.455Z,55.00
2018-03-08T03:51:35.694Z,56.70
2018-03-08T03:54:05.615Z,53.70
2018-03-08T03:56:35.545Z,57.00
2018-03-08T03:59:06.449Z,64.70
2018-03-08T04:01:36.155Z,53.70
2018-03-08T04:04:05.867Z,62.10
2018-03-08T04:06:35.465Z,61.30
2018-03-08T04:09:05.258Z,54.90
2018-03-08T04:11:34.956Z,54.80
2018-03-08T04:14:04.715Z,53.50
2018-03-08T04:16:34.688Z,59.90
2018-03-08T04:19:05.435Z,53.20
2018-03-08T04:21:35.173Z,55.30
2018-03-08T04:24:05.688Z,54.40
2018-03-08T04:26:35.333Z,60.20
2018-03-08T04:29:04.882Z,54.30
2018-03-08T04:31:34.734Z,54.00
2018-03-08T04:34:04.841Z,53.70
2018-03-08T04:36:34.376Z,55.10
2018-03-08T04:39:04.945Z,53.70
2018-03-08T04:44:05.354Z,60.80
2018-03-08T04:46:36.758Z,56.70
2018-03-08T04:49:06.495Z,57.20
2018-03-08T04:51:36.036Z,59.10
2018-03-08T04:54:06.331Z,55.10
2018-03-08T04:56:36.740Z,54.10
2018-03-08T04:59:07.161Z,54.00
2018-03-08T05:01:37.476Z,59.60
2018-03-08T05:04:07.057Z,57.40
2018-03-08T05:06:36.899Z,62.50
2018-03-08T05:09:06.553Z,63.30
2018-03-08T05:11:38.010Z,53.70
2018-03-08T05:14:07.687Z,61.10
2018-03-08T05:16:38.433Z,53.80
2018-03-08T05:19:08.402Z,56.00
2018-03-08T05:21:37.894Z,60.40
2018-03-08T05:24:07.360Z,60.90
2018-03-08T05:26:37.171Z,62.00
2018-03-08T05:29:06.693Z,59.10
2018-03-08T05:31:36.480Z,62.00
2018-03-08T05:34:06.910Z,55.50
2018-03-08T05:36:36.738Z,61.00
2018-03-08T05:39:06.327Z,60.60
2018-03-08T05:41:35.806Z,61.20
2018-03-08T05:44:06.842Z,62.20
2018-03-08T05:46:37.347Z,55.00
2018-03-08T05:49:06.886Z,61.60
2018-03-08T05:51:36.534Z,62.20
2018-03-08T05:54:06.198Z,64.40
2018-03-08T05:56:35.906Z,65.40
2018-03-08T05:59:05.397Z,65.50
2018-03-08T06:01:36.004Z,55.30
2018-03-08T06:04:05.585Z,69.80
2018-03-08T06:06:36.414Z,55.00
2018-03-08T06:09:08.458Z,53.60
2018-03-08T06:11:38.826Z,54.40
2018-03-08T06:14:10.243Z,55.30
2018-03-08T06:16:40.618Z,67.30
2018-03-08T06:19:12.814Z,54.10
2018-03-08T06:21:43.651Z,55.60
2018-03-08T06:24:14.843Z,54.60
2018-03-08T06:29:25.560Z,55.20
2018-03-08T06:34:37.349Z,56.60
2018-03-08T06:37:09.075Z,63.80
2018-03-08T06:39:43.051Z,60.80
2018-03-08T06:42:13.829Z,50.00
2018-03-08T06:44:45.218Z,52.00
2018-03-08T06:47:17.763Z,63.90
2018-03-08T06:49:48.422Z,64.80
2018-03-08T06:52:18.663Z,47.60
2018-03-08T06:54:48.314Z,51.40
2018-03-08T06:57:17.835Z,54.00
2018-03-08T06:59:47.428Z,60.70
2018-03-08T07:02:17.394Z,62.10
2018-03-08T07:04:48.951Z,41.20
2018-03-08T07:07:19.081Z,44.50
2018-03-08T07:09:50.572Z,45.30
2018-03-08T07:12:20.604Z,46.20
2018-03-08T07:14:50.749Z,46.80
2018-03-08T07:17:20.918Z,46.90
2018-03-08T07:19:51.339Z,45.60
2018-03-08T07:22:23.350Z,46.80
2018-03-08T07:24:53.172Z,46.60
2018-03-08T07:27:32.126Z,45.50
2018-03-08T07:30:03.836Z,46.90
2018-03-08T07:32:34.246Z,42.50
2018-03-08T07:35:05.552Z,44.40
2018-03-08T07:37:36.148Z,47.40
2018-03-08T07:40:08.621Z,47.40
2018-03-08T07:42:57.862Z,48.10
2018-03-08T07:45:32.364Z,48.30
2018-03-08T07:48:02.701Z,49.00
2018-03-08T07:50:32.934Z,50.80
2018-03-08T07:53:03.594Z,51.40
2018-03-08T07:55:33.321Z,51.30
2018-03-08T07:58:02.889Z,51.80
2018-03-08T08:00:32.930Z,51.40
2018-03-08T08:03:02.631Z,51.50
2018-03-08T08:05:50.487Z,53.80
2018-03-08T08:11:32.661Z,52.60
2018-03-08T08:14:02.417Z,53.10
2018-03-08T08:16:32.074Z,53.10
2018-03-08T08:19:02.046Z,53.00
2018-03-08T08:21:31.742Z,52.80
2018-03-08T08:24:01.346Z,52.10
2018-03-08T08:26:31.401Z,59.60
2018-03-08T08:29:01.132Z,60.50
2018-03-08T08:31:30.947Z,51.50
2018-03-08T08:34:00.749Z,51.50
2018-03-08T08:36:30.462Z,58.30
2018-03-08T08:39:01.279Z,52.00
2018-03-08T08:41:31.976Z,52.40
2018-03-08T08:50:25.939Z,52.90
2018-03-08T08:52:57.109Z,52.90
2018-03-08T08:55:30.100Z,60.40
2018-03-08T08:58:02.174Z,54.20
2018-03-08T09:00:32.909Z,54.10
2018-03-08T09:03:02.872Z,61.40
2018-03-08T09:05:32.537Z,60.60
2018-03-08T09:08:02.395Z,63.30
2018-03-08T09:10:33.097Z,52.70
2018-03-08T09:13:03.834Z,66.00
2018-03-08T09:15:33.376Z,66.20
2018-03-08T09:18:04.126Z,53.00
2018-03-08T09:20:34.490Z,54.10
2018-03-08T09:23:05.034Z,53.40
2018-03-08T09:25:34.766Z,59.80
2018-03-08T09:28:05.178Z,54.20
2018-03-08T09:30:34.764Z,45.50
2018-03-08T09:33:05.119Z,40.10
2018-03-08T09:35:35.015Z,45.20
2018-03-08T09:38:04.929Z,46.60
2018-03-08T09:40:35.319Z,48.40
2018-03-08T09:43:05.260Z,49.30
2018-03-08T09:45:35.238Z,49.80
2018-03-08T09:48:05.751Z,51.60
2018-03-08T09:50:35.418Z,64.10
2018-03-08T09:53:05.648Z,52.20
2018-03-08T09:55:35.977Z,52.40
2018-03-08T09:58:05.476Z,67.20
2018-03-08T10:00:35.232Z,65.10
2018-03-08T10:03:05.118Z,53.00
2018-03-08T10:05:36.030Z,53.00
2018-03-08T10:08:07.243Z,53.10
2018-03-08T10:10:37.695Z,53.20
2018-03-08T10:13:08.410Z,51.90
2018-03-08T10:15:39.659Z,53.40
2018-03-08T10:18:09.242Z,63.30
2018-03-08T10:20:38.952Z,62.00
2018-03-08T10:23:09.486Z,53.80
2018-03-08T10:25:39.155Z,59.90
2018-03-08T10:28:09.478Z,53.90
2018-03-08T10:30:39.815Z,53.90
2018-03-08T10:33:09.559Z,63.10
2018-03-08T10:35:39.366Z,60.60
2018-03-08T10:38:08.848Z,60.60
2018-03-08T10:40:45.376Z,59.90
2018-03-08T10:43:08.200Z,53.90
2018-03-08T10:45:37.751Z,58.60
2018-03-08T10:48:08.103Z,52.70
2018-03-08T10:50:38.481Z,60.10
2018-03-08T10:53:09.388Z,52.90
2018-03-08T10:55:39.676Z,52.80
2018-03-08T10:58:16.425Z,54.10
2018-03-08T11:00:54.636Z,52.20
2018-03-08T11:03:30.250Z,61.60
2018-03-08T14:21:42.030Z,31.00
2018-03-08T14:24:14.292Z,34.30
2018-03-08T14:26:45.593Z,35.90
2018-03-08T14:29:17.188Z,38.10
2018-03-08T14:31:49.206Z,39.00
2018-03-08T16:04:58.412Z,39.90
2018-03-08T16:20:25.546Z,45.40
2018-03-08T16:22:56.767Z,44.90
2018-03-08T16:25:27.339Z,46.30
2018-03-08T16:27:59.099Z,47.90
2018-03-08T16:30:29.419Z,47.70
2018-03-08T16:32:59.814Z,48.80
2018-03-08T16:35:32.294Z,49.90
2018-03-08T16:38:11.042Z,50.20
2018-03-08T16:40:43.227Z,50.80
2018-03-08T16:43:16.027Z,50.80
2018-03-08T16:45:54.126Z,52.30
2018-03-08T16:48:31.319Z,52.20
2018-03-08T16:51:07.253Z,52.90
2018-03-08T16:53:41.392Z,54.30
2018-03-08T16:56:22.361Z,54.60
2018-03-08T16:58:56.857Z,55.20
2018-03-08T17:01:33.450Z,54.70
2018-03-08T17:06:59.228Z,51.20
2018-03-08T17:09:31.248Z,52.40
2018-03-08T17:12:03.722Z,51.50
2018-03-08T17:14:36.379Z,51.30
2018-03-08T17:17:10.558Z,53.10
2018-03-08T17:19:46.399Z,53.10
2018-03-08T17:22:23.222Z,53.50
2018-03-08T17:24:56.911Z,54.00
2018-03-08T17:27:39.649Z,55.40
2018-03-08T17:33:08.793Z,60.00
2018-03-08T17:35:42.701Z,59.80
2018-03-08T17:38:18.166Z,63.40
2018-03-08T17:43:28.900Z,64.60
2018-03-08T17:46:03.055Z,65.50
2018-03-08T17:48:37.947Z,66.60
2018-03-08T17:51:29.014Z,67.70
2018-03-08T17:54:12.572Z,67.70
2018-03-08T17:56:59.319Z,67.90
2018-03-08T17:59:33.077Z,68.50
2018-03-08T18:02:08.512Z,69.30
2018-03-08T18:04:43.904Z,69.70
2018-03-08T18:07:17.826Z,70.20
2018-03-08T18:12:58.492Z,71.30
2018-03-08T18:15:40.880Z,72.10
2018-03-08T18:18:18.770Z,72.00
2018-03-08T18:20:55.692Z,72.20
2018-03-08T18:23:33.053Z,72.40
2018-03-08T18:26:21.893Z,72.60
2018-03-08T18:28:54.122Z,72.70
2018-03-08T18:31:30.363Z,73.00
2018-03-08T18:34:06.890Z,73.20
2018-03-08T18:36:42.870Z,73.20
2018-03-08T18:39:16.438Z,73.60
2018-03-08T18:41:51.220Z,74.00
2018-03-08T18:44:27.764Z,74.50
2018-03-08T18:47:04.185Z,74.80
2018-03-08T18:49:41.163Z,75.10
2018-03-08T18:52:18.758Z,75.40
2018-03-08T18:54:52.316Z,75.50
2018-03-08T18:57:29.728Z,75.70
2018-03-08T19:00:02.967Z,75.80
2018-03-08T19:02:38.408Z,75.80
2018-03-08T19:07:59.724Z,75.90
2018-03-08T19:10:33.869Z,76.20
2018-03-08T19:13:11.166Z,76.30
2018-03-08T19:15:46.572Z,76.50
2018-03-08T19:18:21.854Z,76.20
2018-03-08T19:20:57.267Z,76.30
2018-03-08T19:23:31.312Z,76.40
2018-03-08T19:26:07.921Z,76.50
2018-03-08T19:28:45.812Z,76.60
2018-03-08T19:31:16.513Z,76.80
2018-03-08T19:33:51.908Z,77.10
2018-03-08T19:36:30.870Z,77.30
2018-03-08T19:39:04.145Z,77.20
2018-03-08T19:41:37.293Z,77.40
2018-03-08T19:44:14.346Z,77.50
2018-03-08T19:46:50.951Z,77.60
